createdAt,value
2019-04-25T00:00:05.962Z,12.63
2019-04-25T00:02:21.319Z,13.73
2019-04-25T00:04:23.458Z,15.43
2019-04-25T00:06:26.806Z,11.83
2019-04-25T00:08:31.116Z,18.70
2019-04-25T00:10:33.113Z,10.63
2019-04-25T00:12:35.493Z,13.33
2019-04-25T00:14:38.054Z,9.90
2019-04-25T00:16:45.149Z,17.20
2019-04-25T00:18:47.361Z,11.30
2019-04-25T00:20:54.229Z,8.37
2019-04-25T00:23:06.014Z,12.03
2019-04-25T00:25:18.170Z,11.40
2019-04-25T00:27:19.945Z,9.17
2019-04-25T00:29:22.045Z,12.23
2019-04-25T00:31:26.017Z,10.07
2019-04-25T00:33:27.741Z,9.93
2019-04-25T00:35:29.457Z,6.30
2019-04-25T00:37:32.304Z,6.33
2019-04-25T00:39:34.689Z,3.70
2019-04-25T00:41:36.606Z,5.00
2019-04-25T00:43:38.409Z,10.00
2019-04-25T00:45:42.415Z,7.00
2019-04-25T00:47:44.641Z,9.40
2019-04-25T00:49:46.645Z,4.87
2019-04-25T00:51:48.374Z,6.67
2019-04-25T00:53:51.765Z,3.60
2019-04-25T00:55:53.903Z,5.37
2019-04-25T00:58:03.379Z,3.90
2019-04-25T01:00:25.096Z,4.20
2019-04-25T01:02:33.938Z,5.83
2019-04-25T01:04:35.652Z,3.73
2019-04-25T01:06:37.637Z,4.13
2019-04-25T01:08:39.346Z,4.33
2019-04-25T01:10:41.613Z,2.33
2019-04-25T01:12:44.573Z,6.53
2019-04-25T01:14:46.538Z,4.73
2019-04-25T01:16:48.649Z,4.87
2019-04-25T01:18:50.917Z,5.83
2019-04-25T01:20:53.665Z,3.23
2019-04-25T01:22:57.765Z,4.10
2019-04-25T01:24:59.617Z,3.20
2019-04-25T01:27:01.324Z,3.23
2019-04-25T01:29:03.739Z,5.13
2019-04-25T01:31:07.453Z,2.20
2019-04-25T01:33:09.785Z,4.43
2019-04-25T01:35:37.045Z,3.43
2019-04-25T01:37:49.007Z,6.60
2019-04-25T01:40:10.608Z,2.30
2019-04-25T01:42:23.937Z,3.30
2019-04-25T01:44:33.958Z,7.90
2019-04-25T01:46:38.113Z,3.60
2019-04-25T01:48:39.918Z,6.10
2019-04-25T01:50:43.634Z,4.33
2019-04-25T01:52:45.363Z,5.07
2019-04-25T01:54:47.331Z,4.33
2019-04-25T01:56:50.924Z,7.60
2019-04-25T01:58:53.903Z,5.60
2019-04-25T02:00:57.332Z,5.17
2019-04-25T02:02:59.422Z,4.40
2019-04-25T02:05:01.226Z,6.10
2019-04-25T02:07:04.545Z,3.10
2019-04-25T02:09:09.674Z,5.73
2019-04-25T02:11:19.924Z,3.17
2019-04-25T02:13:23.637Z,5.40
2019-04-25T02:15:29.074Z,3.40
2019-04-25T02:17:30.773Z,4.30
2019-04-25T02:19:34.291Z,7.13
2019-04-25T02:21:36.233Z,4.33
2019-04-25T02:23:38.145Z,5.30
2019-04-25T02:25:40.261Z,5.43
2019-04-25T02:27:41.977Z,5.50
2019-04-25T02:29:44.721Z,5.50
2019-04-25T02:31:46.648Z,5.03
2019-04-25T02:33:48.361Z,6.57
2019-04-25T02:35:50.332Z,7.43
2019-04-25T02:37:54.383Z,7.00
2019-04-25T02:39:58.853Z,7.80
2019-04-25T02:42:01.127Z,8.40
2019-04-25T02:44:09.438Z,7.37
2019-04-25T02:46:28.107Z,7.40
2019-04-25T02:48:51.311Z,7.77
2019-04-25T02:51:15.382Z,9.70
2019-04-25T02:53:44.680Z,7.73
2019-04-25T02:55:45.998Z,16.23
2019-04-25T02:57:47.722Z,8.10
2019-04-25T02:59:49.622Z,9.80
2019-04-25T03:01:54.033Z,9.93
2019-04-25T03:03:57.353Z,10.50
2019-04-25T03:05:59.767Z,10.33
2019-04-25T03:08:08.022Z,9.20
2019-04-25T03:10:10.007Z,10.07
2019-04-25T03:12:27.986Z,10.20
2019-04-25T03:14:15.492Z,11.80
2019-04-25T03:16:17.553Z,13.77
2019-04-25T03:18:21.341Z,12.63
2019-04-25T03:20:38.192Z,12.13
2019-04-25T03:22:39.894Z,12.10
2019-04-25T03:24:41.700Z,13.10
2019-04-25T03:26:44.304Z,11.90
2019-04-25T03:28:46.189Z,12.10
2019-04-25T03:30:47.894Z,30.33
2019-04-25T03:32:51.679Z,12.20
2019-04-25T03:34:54.809Z,18.53
2019-04-25T03:36:56.821Z,11.57
2019-04-25T03:38:58.537Z,11.93
2019-04-25T03:41:00.968Z,11.70
2019-04-25T03:43:04.837Z,13.80
2019-04-25T03:45:07.389Z,12.33
2019-04-25T03:47:09.750Z,12.73
2019-04-25T03:49:11.854Z,14.60
2019-04-25T03:51:15.334Z,11.80
2019-04-25T03:53:17.268Z,15.37
2019-04-25T03:55:18.963Z,14.80
2019-04-25T03:57:20.675Z,13.67
2019-04-25T03:59:23.646Z,15.47
2019-04-25T04:01:25.696Z,12.63
2019-04-25T04:03:27.453Z,13.97
2019-04-25T04:05:29.479Z,13.10
2019-04-25T04:07:31.399Z,13.70
2019-04-25T04:09:43.544Z,16.40
2019-04-25T04:11:45.457Z,15.83
2019-04-25T04:13:47.647Z,13.40
2019-04-25T04:15:49.368Z,17.10
2019-04-25T04:18:16.317Z,15.00
2019-04-25T04:20:30.545Z,14.63
2019-04-25T04:22:38.088Z,13.47
2019-04-25T04:24:44.019Z,16.00
2019-04-25T04:27:06.897Z,15.97
2019-04-25T04:29:10.105Z,12.77
2019-04-25T04:31:12.585Z,14.27
2019-04-25T04:33:25.759Z,15.73
2019-04-25T04:35:19.503Z,12.50
2019-04-25T04:37:21.251Z,18.70
2019-04-25T04:39:23.558Z,13.07
2019-04-25T04:41:25.382Z,14.30
2019-04-25T04:43:27.117Z,16.50
2019-04-25T04:45:28.837Z,14.93
2019-04-25T04:47:30.682Z,13.63
2019-04-25T04:49:34.053Z,14.03
2019-04-25T04:51:36.045Z,14.53
2019-04-25T04:53:37.873Z,14.50
2019-04-25T04:55:39.757Z,15.97
2019-04-25T04:57:43.495Z,14.43
2019-04-25T04:59:45.204Z,14.70
2019-04-25T05:02:15.772Z,15.43
2019-04-25T05:04:25.219Z,12.80
2019-04-25T05:06:48.275Z,14.77
2019-04-25T05:08:56.451Z,14.50
2019-04-25T05:10:58.318Z,13.37
2019-04-25T05:13:00.093Z,12.93
2019-04-25T05:15:01.853Z,12.90
2019-04-25T05:17:04.335Z,15.77
2019-04-25T05:19:06.337Z,15.10
2019-04-25T05:21:08.060Z,13.63
2019-04-25T05:23:10.340Z,14.60
2019-04-25T05:25:15.294Z,13.67
2019-04-25T05:27:31.431Z,14.13
2019-04-25T05:29:22.498Z,16.50
2019-04-25T05:31:34.205Z,15.50
2019-04-25T05:33:36.164Z,14.00
2019-04-25T05:35:37.888Z,14.30
2019-04-25T05:37:39.588Z,14.77
2019-04-25T05:39:41.385Z,14.20
2019-04-25T05:41:54.033Z,14.77
2019-04-25T05:43:55.853Z,14.30
2019-04-25T05:45:57.794Z,14.60
2019-04-25T05:47:59.630Z,14.77
2019-04-25T05:50:01.433Z,14.00
2019-04-25T05:52:04.049Z,15.33
2019-04-25T05:54:06.052Z,14.50
2019-04-25T05:56:07.753Z,13.60
2019-04-25T05:58:09.577Z,12.97
2019-04-25T06:00:13.463Z,12.27
2019-04-25T06:02:15.690Z,11.53
2019-04-25T06:04:17.971Z,11.13
2019-04-25T06:06:19.977Z,12.77
2019-04-25T06:08:25.475Z,11.87
2019-04-25T06:10:59.002Z,12.77
2019-04-25T06:13:29.526Z,13.07
2019-04-25T06:15:33.203Z,10.60
2019-04-25T06:17:55.517Z,8.73
2019-04-25T06:20:05.626Z,7.67
2019-04-25T06:22:09.413Z,8.40
2019-04-25T06:24:25.467Z,7.10
2019-04-25T06:26:35.044Z,8.77
2019-04-25T06:28:49.011Z,8.27
2019-04-25T06:30:40.334Z,7.93
2019-04-25T06:32:43.652Z,6.77
2019-04-25T06:34:45.665Z,6.93
2019-04-25T06:36:47.381Z,6.37
2019-04-25T06:38:49.201Z,8.50
2019-04-25T06:40:51.280Z,6.37
2019-04-25T06:42:53.574Z,8.00
2019-04-25T06:45:19.113Z,7.27
2019-04-25T06:47:49.053Z,7.10
2019-04-25T06:49:50.753Z,5.90
2019-04-25T06:51:54.631Z,6.50
2019-04-25T06:53:56.784Z,6.97
2019-04-25T06:55:58.494Z,4.90
2019-04-25T06:58:10.258Z,6.93
2019-04-25T07:00:05.597Z,5.50
2019-04-25T07:02:07.309Z,5.10
2019-04-25T07:04:09.024Z,6.03
2019-04-25T07:06:10.817Z,5.13
2019-04-25T07:08:13.316Z,6.37
2019-04-25T07:10:15.842Z,5.20
2019-04-25T07:12:17.548Z,5.30
2019-04-25T07:14:19.352Z,5.10
2019-04-25T07:16:21.289Z,5.97
2019-04-25T07:18:24.822Z,4.97
2019-04-25T07:20:27.058Z,4.97
2019-04-25T07:22:29.393Z,4.90
2019-04-25T07:24:31.470Z,6.60
2019-04-25T07:27:03.651Z,5.00
2019-04-25T07:29:26.862Z,6.03
2019-04-25T07:32:00.494Z,6.97
2019-04-25T07:34:22.064Z,4.40
2019-04-25T07:36:23.869Z,4.80
2019-04-25T07:38:25.628Z,5.57
2019-04-25T07:40:27.576Z,6.23
2019-04-25T07:42:29.869Z,5.00
2019-04-25T07:44:41.982Z,4.80
2019-04-25T07:46:39.270Z,6.93
2019-04-25T07:48:39.045Z,5.30
2019-04-25T07:50:41.053Z,5.17
2019-04-25T07:52:44.282Z,3.80
2019-04-25T07:54:46.336Z,5.23
2019-04-25T07:56:48.049Z,6.63
2019-04-25T07:58:52.602Z,7.07
2019-04-25T08:00:54.025Z,59.00
2019-04-25T08:02:55.824Z,4.53
2019-04-25T08:05:00.118Z,4.30
2019-04-25T08:07:02.089Z,3.20
2019-04-25T08:09:06.863Z,4.03
2019-04-25T08:11:09.316Z,3.10
2019-04-25T08:13:11.237Z,3.77
2019-04-25T08:15:34.886Z,4.53
2019-04-25T08:17:57.977Z,4.87
2019-04-25T08:19:59.877Z,4.33
2019-04-25T08:22:03.632Z,4.03
2019-04-25T08:24:06.031Z,3.20
2019-04-25T08:26:07.828Z,3.30
2019-04-25T08:28:09.521Z,3.90
2019-04-25T08:30:11.329Z,3.30
2019-04-25T08:32:14.281Z,5.73
2019-04-25T08:34:16.348Z,4.57
2019-04-25T08:36:18.269Z,5.03
2019-04-25T08:38:19.958Z,3.83
2019-04-25T08:40:23.771Z,3.30
2019-04-25T08:42:26.005Z,2.80
2019-04-25T08:44:27.709Z,3.13
2019-04-25T08:46:29.615Z,3.33
2019-04-25T08:48:34.911Z,3.10
2019-04-25T08:50:47.089Z,2.03
2019-04-25T08:52:48.905Z,2.50
2019-04-25T08:54:57.631Z,2.40
2019-04-25T08:57:00.512Z,2.20
2019-04-25T08:59:34.549Z,4.60
2019-04-25T09:01:40.633Z,3.10
2019-04-25T09:03:53.872Z,1.80
2019-04-25T09:05:56.167Z,5.40
2019-04-25T09:07:58.505Z,2.40
2019-04-25T09:10:00.401Z,2.93
2019-04-25T09:12:02.198Z,1.83
2019-04-25T09:14:04.133Z,2.63
2019-04-25T09:16:06.033Z,2.43
2019-04-25T09:18:07.729Z,1.90
2019-04-25T09:20:09.961Z,3.70
2019-04-25T09:22:13.184Z,2.33
2019-04-25T09:24:15.069Z,1.83
2019-04-25T09:26:16.876Z,2.10
2019-04-25T09:28:18.599Z,3.97
2019-04-25T09:30:20.600Z,2.00
2019-04-25T09:32:23.831Z,2.80
2019-04-25T09:34:25.804Z,2.37
2019-04-25T09:36:27.492Z,2.10
2019-04-25T09:38:29.225Z,2.40
2019-04-25T09:40:31.166Z,3.40
2019-04-25T09:42:33.780Z,2.40
2019-04-25T09:44:53.709Z,2.93
2019-04-25T09:46:55.590Z,2.10
2019-04-25T09:49:14.822Z,2.20
2019-04-25T09:51:44.237Z,3.07
2019-04-25T09:53:51.218Z,2.10
2019-04-25T09:55:58.062Z,2.37
2019-04-25T09:58:04.093Z,2.23
2019-04-25T10:00:13.224Z,5.00
2019-04-25T10:02:15.091Z,2.47
2019-04-25T10:04:17.382Z,3.20
2019-04-25T10:06:19.569Z,6.70
2019-04-25T10:08:21.389Z,3.00
2019-04-25T10:10:24.429Z,3.03
2019-04-25T10:12:26.264Z,4.47
2019-04-25T10:15:06.913Z,3.00
2019-04-25T10:17:09.017Z,3.13
2019-04-25T10:19:10.814Z,3.20
2019-04-25T10:21:14.306Z,3.03
2019-04-25T10:23:16.588Z,4.07
2019-04-25T10:25:18.488Z,3.00
2019-04-25T10:27:20.298Z,6.40
2019-04-25T10:29:22.332Z,3.00
2019-04-25T10:31:24.243Z,4.20
2019-04-25T10:33:26.243Z,2.60
2019-04-25T10:35:28.266Z,2.37
2019-04-25T10:37:30.061Z,3.03
2019-04-25T10:39:33.807Z,3.10
2019-04-25T10:41:36.045Z,4.23
2019-04-25T10:43:39.489Z,4.30
2019-04-25T10:45:44.398Z,3.80
2019-04-25T10:47:46.691Z,3.20
2019-04-25T10:49:49.495Z,6.40
2019-04-25T10:51:52.377Z,4.50
2019-04-25T10:53:55.116Z,4.60
2019-04-25T10:55:57.013Z,4.60
2019-04-25T10:57:58.819Z,2.90
2019-04-25T11:00:07.536Z,3.17
2019-04-25T11:02:07.981Z,3.57
2019-04-25T11:04:29.465Z,4.20
2019-04-25T11:06:31.375Z,3.40
2019-04-25T11:08:34.054Z,3.97
2019-04-25T11:10:36.198Z,2.77
2019-04-25T11:12:38.149Z,5.00
2019-04-25T11:14:40.841Z,3.10
2019-04-25T11:16:45.586Z,4.40
2019-04-25T11:18:47.600Z,3.77
2019-04-25T11:20:50.384Z,2.30
2019-04-25T11:22:53.475Z,2.53
2019-04-25T11:24:55.401Z,3.33
2019-04-25T11:26:57.197Z,3.77
2019-04-25T11:28:59.104Z,3.80
2019-04-25T11:31:05.777Z,5.40
2019-04-25T11:33:08.300Z,4.37
2019-04-25T11:35:11.853Z,5.60
2019-04-25T11:37:14.721Z,3.63
2019-04-25T11:39:36.791Z,4.10
2019-04-25T11:41:38.609Z,6.10
2019-04-25T11:43:40.345Z,4.20
2019-04-25T11:45:42.301Z,2.83
2019-04-25T11:47:45.932Z,4.90
2019-04-25T11:49:47.928Z,5.70
2019-04-25T11:51:50.307Z,3.50
2019-04-25T11:53:52.157Z,3.10
2019-04-25T11:55:54.711Z,2.20
2019-04-25T11:57:56.543Z,4.23
2019-04-25T11:59:58.358Z,4.03
2019-04-25T12:02:00.864Z,2.30
2019-04-25T12:04:04.102Z,3.20
2019-04-25T12:06:06.547Z,7.80
2019-04-25T12:08:08.937Z,4.07
2019-04-25T12:10:12.386Z,6.73
2019-04-25T12:12:14.693Z,3.03
2019-04-25T12:14:16.515Z,3.80
2019-04-25T12:16:18.356Z,4.10
2019-04-25T12:18:20.237Z,3.17
2019-04-25T12:20:22.245Z,4.40
2019-04-25T12:22:24.051Z,2.07
2019-04-25T12:24:25.749Z,4.00
2019-04-25T12:26:27.462Z,2.00
2019-04-25T12:28:29.185Z,2.30
2019-04-25T12:30:39.533Z,2.23
2019-04-25T12:32:35.243Z,2.87
2019-04-25T12:34:37.176Z,3.93
2019-04-25T12:36:38.891Z,2.57
2019-04-25T12:38:40.683Z,2.70
2019-04-25T12:40:43.407Z,3.80
2019-04-25T12:42:46.393Z,5.83
2019-04-25T12:45:07.253Z,4.13
2019-04-25T12:47:13.618Z,4.97
2019-04-25T12:49:15.531Z,3.10
2019-04-25T12:51:17.233Z,6.43
2019-04-25T12:53:19.072Z,3.97
2019-04-25T12:55:21.049Z,3.00
2019-04-25T12:57:24.101Z,7.37
2019-04-25T12:59:25.900Z,2.40
2019-04-25T13:01:27.605Z,5.10
2019-04-25T13:03:29.410Z,4.10
2019-04-25T13:05:31.109Z,3.53
2019-04-25T13:07:32.828Z,6.30
2019-04-25T13:09:34.653Z,3.73
2019-04-25T13:11:36.454Z,6.13
2019-04-25T13:13:38.188Z,6.03
2019-04-25T13:15:39.869Z,2.27
2019-04-25T13:17:41.661Z,4.47
2019-04-25T13:19:44.100Z,2.20
2019-04-25T13:21:46.289Z,3.00
2019-04-25T13:23:47.993Z,4.90
2019-04-25T13:25:49.909Z,3.30
2019-04-25T13:28:14.475Z,2.87
2019-04-25T13:30:25.778Z,4.00
2019-04-25T13:32:47.661Z,5.43
2019-04-25T13:34:49.432Z,4.80
2019-04-25T13:36:51.239Z,2.10
2019-04-25T13:38:54.022Z,2.60
2019-04-25T13:40:55.862Z,3.23
2019-04-25T13:42:58.009Z,3.40
2019-04-25T13:45:00.207Z,9.00
2019-04-25T13:47:04.039Z,2.57
2019-04-25T13:49:06.442Z,3.53
2019-04-25T13:51:08.256Z,2.83
2019-04-25T13:53:10.288Z,3.30
2019-04-25T13:55:13.599Z,3.90
2019-04-25T13:57:15.397Z,7.00
2019-04-25T13:59:17.321Z,4.43
2019-04-25T14:01:19.133Z,7.13
2019-04-25T14:03:21.784Z,4.80
2019-04-25T14:05:26.009Z,3.17
2019-04-25T14:07:27.893Z,3.80
2019-04-25T14:09:30.109Z,2.73
2019-04-25T14:11:32.706Z,5.70
2019-04-25T14:13:35.414Z,2.57
2019-04-25T14:15:40.610Z,2.63
2019-04-25T14:18:10.600Z,2.90
2019-04-25T14:20:31.238Z,3.67
2019-04-25T14:22:33.201Z,5.00
2019-04-25T14:24:35.896Z,2.53
2019-04-25T14:26:37.703Z,3.30
2019-04-25T14:28:39.655Z,4.60
2019-04-25T14:30:43.142Z,4.07
2019-04-25T14:32:45.314Z,3.67
2019-04-25T14:34:47.021Z,2.43
2019-04-25T14:36:48.735Z,2.77
2019-04-25T14:38:50.563Z,3.93
2019-04-25T14:40:52.524Z,4.60
2019-04-25T14:42:54.241Z,3.87
2019-04-25T14:44:56.046Z,3.30
2019-04-25T14:46:58.072Z,3.10
2019-04-25T14:48:59.786Z,2.80
2019-04-25T14:51:01.594Z,3.27
2019-04-25T14:53:03.429Z,2.17
2019-04-25T14:55:24.801Z,3.03
2019-04-25T14:57:29.811Z,4.23
2019-04-25T14:59:31.757Z,2.20
2019-04-25T15:01:44.008Z,5.13
2019-04-25T15:03:37.078Z,2.60
2019-04-25T15:05:41.187Z,3.00
2019-04-25T15:07:43.041Z,2.73
2019-04-25T15:09:44.959Z,3.93
2019-04-25T15:11:46.669Z,4.27
2019-04-25T15:13:48.368Z,2.07
2019-04-25T15:15:50.178Z,9.03
2019-04-25T15:17:52.012Z,2.93
2019-04-25T15:19:53.711Z,3.83
2019-04-25T15:21:55.426Z,2.37
2019-04-25T15:24:00.323Z,2.03
2019-04-25T15:26:00.898Z,3.37
2019-04-25T15:28:03.133Z,2.90
2019-04-25T15:30:06.114Z,3.87
2019-04-25T15:32:09.762Z,3.40
2019-04-25T15:34:11.449Z,4.03
2019-04-25T15:36:24.913Z,2.97
2019-04-25T15:38:36.433Z,5.10
2019-04-25T15:40:46.673Z,6.20
2019-04-25T15:43:06.488Z,2.27
2019-04-25T15:45:28.579Z,3.33
2019-04-25T15:47:31.698Z,3.23
2019-04-25T15:49:34.564Z,2.27
2019-04-25T15:51:37.635Z,4.70
2019-04-25T15:53:40.265Z,2.43
2019-04-25T15:55:42.141Z,5.67
2019-04-25T15:57:43.930Z,2.63
2019-04-25T15:59:45.623Z,3.10
2019-04-25T16:01:47.334Z,4.50
2019-04-25T16:03:49.061Z,3.80
2019-04-25T16:05:50.790Z,2.43
2019-04-25T16:07:52.504Z,2.10
2019-04-25T16:09:54.462Z,7.60
2019-04-25T16:11:56.281Z,7.83
2019-04-25T16:13:58.017Z,2.53
2019-04-25T16:15:59.717Z,2.07
2019-04-25T16:18:02.369Z,2.60
2019-04-25T16:20:04.357Z,2.93
2019-04-25T16:22:06.251Z,4.27
2019-04-25T16:24:08.266Z,3.30
2019-04-25T16:26:10.913Z,1.90
2019-04-25T16:28:12.805Z,2.53
2019-04-25T16:30:15.134Z,2.80
2019-04-25T16:32:21.019Z,3.60
2019-04-25T16:34:23.288Z,2.60
2019-04-25T16:36:25.102Z,4.60
2019-04-25T16:38:27.021Z,3.30
2019-04-25T16:40:29.601Z,2.10
2019-04-25T16:42:31.780Z,2.53
2019-04-25T16:44:34.000Z,5.63
2019-04-25T16:46:35.957Z,2.10
2019-04-25T16:48:37.781Z,3.20
2019-04-25T16:50:40.105Z,3.07
2019-04-25T16:52:42.637Z,3.30
2019-04-25T16:54:44.455Z,5.67
2019-04-25T16:56:46.351Z,3.73
2019-04-25T16:58:48.057Z,4.60
2019-04-25T17:00:57.916Z,3.93
2019-04-25T17:03:00.083Z,2.00
2019-04-25T17:05:03.281Z,6.27
2019-04-25T17:07:05.326Z,4.03
2019-04-25T17:09:08.590Z,2.77
2019-04-25T17:11:13.947Z,2.63
2019-04-25T17:13:16.441Z,4.30
2019-04-25T17:15:28.349Z,2.10
2019-04-25T17:17:35.893Z,3.63
2019-04-25T17:19:51.383Z,3.23
2019-04-25T17:21:53.063Z,6.23
2019-04-25T17:23:55.042Z,2.20
2019-04-25T17:25:56.784Z,2.87
2019-04-25T17:27:58.598Z,2.10
2019-04-25T17:30:02.687Z,3.40
2019-04-25T17:32:14.024Z,3.40
2019-04-25T17:34:24.593Z,3.30
2019-04-25T17:36:35.705Z,3.50
2019-04-25T17:38:42.772Z,4.67
2019-04-25T17:40:44.581Z,2.47
2019-04-25T17:42:46.489Z,2.23
2019-04-25T17:44:48.304Z,3.80
2019-04-25T17:46:50.011Z,4.47
2019-04-25T17:48:51.731Z,3.03
2019-04-25T17:50:53.548Z,5.93
2019-04-25T17:52:55.369Z,2.17
2019-04-25T17:54:57.176Z,2.67
2019-04-25T17:56:59.002Z,3.20
2019-04-25T17:59:00.822Z,2.60
2019-04-25T18:01:03.047Z,3.40
2019-04-25T18:03:07.157Z,3.93
2019-04-25T18:05:09.117Z,2.60
2019-04-25T18:07:10.826Z,5.73
2019-04-25T18:09:12.633Z,4.43
2019-04-25T18:11:14.576Z,2.60
2019-04-25T18:13:26.834Z,4.13
2019-04-25T18:15:35.333Z,5.60
2019-04-25T18:17:38.175Z,2.50
2019-04-25T18:19:49.884Z,2.37
2019-04-25T18:21:52.832Z,8.63
2019-04-25T18:24:17.227Z,2.60
2019-04-25T18:26:30.290Z,3.10
2019-04-25T18:28:37.444Z,3.90
2019-04-25T18:30:39.885Z,2.17
2019-04-25T18:32:50.662Z,2.43
2019-04-25T18:34:57.592Z,4.37
2019-04-25T18:37:17.682Z,4.80
2019-04-25T18:39:27.069Z,4.97
2019-04-25T18:41:33.661Z,6.10
2019-04-25T18:43:53.645Z,3.17
2019-04-25T18:45:59.661Z,3.67
2019-04-25T18:48:01.346Z,3.40
2019-04-25T18:50:03.483Z,5.43
2019-04-25T18:52:09.005Z,3.70
2019-04-25T18:54:27.454Z,3.23
2019-04-25T18:56:54.715Z,5.53
2019-04-25T18:59:24.813Z,8.80
2019-04-25T19:01:45.936Z,6.70
2019-04-25T19:04:13.348Z,5.67
2019-04-25T19:06:17.208Z,4.00
2019-04-25T19:08:18.909Z,6.03
2019-04-25T19:10:20.909Z,4.53
2019-04-25T19:12:22.609Z,5.27
2019-04-25T19:14:26.995Z,3.17
2019-04-25T19:16:27.920Z,4.43
2019-04-25T19:18:29.641Z,7.47
2019-04-25T19:20:31.688Z,5.10
2019-04-25T19:22:33.424Z,6.77
2019-04-25T19:24:35.119Z,6.60
2019-04-25T19:26:39.253Z,5.50
2019-04-25T19:28:41.442Z,3.67
2019-04-25T19:30:43.198Z,3.80
2019-04-25T19:32:45.020Z,3.07
2019-04-25T19:34:46.988Z,5.93
2019-04-25T19:36:49.099Z,6.93
2019-04-25T19:38:50.930Z,7.90
2019-04-25T19:41:01.945Z,7.80
2019-04-25T19:43:12.037Z,2.73
2019-04-25T19:45:14.289Z,3.33
2019-04-25T19:47:15.968Z,3.83
2019-04-25T19:49:17.799Z,3.80
2019-04-25T19:51:19.521Z,6.20
2019-04-25T19:53:21.288Z,3.73
2019-04-25T19:55:23.070Z,5.13
2019-04-25T19:57:24.786Z,5.03
2019-04-25T19:59:26.502Z,6.73
2019-04-25T20:01:28.613Z,6.57
2019-04-25T20:03:47.519Z,5.43
2019-04-25T20:05:50.383Z,5.00
2019-04-25T20:07:57.447Z,5.97
2019-04-25T20:10:17.452Z,3.80
2019-04-25T20:12:20.280Z,4.60
2019-04-25T20:14:22.021Z,5.00
2019-04-25T20:16:23.717Z,5.77
2019-04-25T20:18:25.425Z,4.07
2019-04-25T20:20:27.679Z,3.60
2019-04-25T20:22:29.361Z,6.17
2019-04-25T20:24:31.101Z,7.13
2019-04-25T20:26:32.793Z,5.90
2019-04-25T20:28:34.601Z,5.43
2019-04-25T20:30:36.340Z,5.73
2019-04-25T20:32:38.032Z,3.20
2019-04-25T20:34:39.738Z,3.93
2019-04-25T20:36:41.703Z,4.90
2019-04-25T20:38:43.400Z,3.97
2019-04-25T20:40:45.171Z,3.40
2019-04-25T20:42:49.874Z,5.23
2019-04-25T20:44:51.757Z,4.23
2019-04-25T20:46:53.505Z,3.63
2019-04-25T20:48:55.215Z,6.77
2019-04-25T20:50:57.033Z,5.17
2019-04-25T20:52:58.736Z,5.70
2019-04-25T20:55:00.434Z,2.80
2019-04-25T20:57:02.249Z,3.40
2019-04-25T20:59:04.137Z,4.03
2019-04-25T21:01:06.060Z,3.37
2019-04-25T21:03:08.300Z,5.20
2019-04-25T21:05:10.229Z,5.60
2019-04-25T21:07:12.234Z,5.47
2019-04-25T21:09:14.205Z,7.40
2019-04-25T21:11:15.896Z,4.53
2019-04-25T21:13:24.226Z,3.60
2019-04-25T21:15:34.613Z,3.10
2019-04-25T21:17:39.996Z,5.50
2019-04-25T21:19:43.397Z,5.93
2019-04-25T21:21:45.104Z,3.73
2019-04-25T21:23:46.800Z,5.03
2019-04-25T21:25:48.573Z,4.30
2019-04-25T21:27:51.216Z,6.93
2019-04-25T21:29:53.787Z,7.70
2019-04-25T21:31:56.708Z,3.40
2019-04-25T21:33:59.444Z,3.87
2019-04-25T21:36:01.765Z,4.73
2019-04-25T21:38:04.460Z,4.50
2019-04-25T21:40:13.816Z,6.80
2019-04-25T21:42:38.289Z,9.37
2019-04-25T21:44:40.253Z,5.93
2019-04-25T21:46:42.065Z,2.70
2019-04-25T21:51:57.821Z,6.07
2019-04-25T21:54:01.377Z,2.50
2019-04-25T21:56:03.956Z,3.80
2019-04-25T21:58:05.878Z,2.77
2019-04-25T22:00:10.379Z,3.90
2019-04-25T22:02:12.874Z,3.60
2019-04-25T22:04:15.050Z,5.83
2019-04-25T22:06:17.858Z,3.83
2019-04-25T22:08:20.039Z,3.57
2019-04-25T22:10:21.978Z,3.27
2019-04-25T22:12:23.918Z,3.47
2019-04-25T22:14:25.718Z,3.20
2019-04-25T22:16:27.801Z,7.10
2019-04-25T22:18:30.022Z,8.00
2019-04-25T22:20:32.140Z,3.97
2019-04-25T22:22:34.074Z,7.10
2019-04-25T22:24:36.200Z,4.10
2019-04-25T22:26:38.075Z,5.30
2019-04-25T22:28:40.514Z,6.50
2019-04-25T22:30:44.498Z,3.53
2019-04-25T22:33:08.950Z,3.57
2019-04-25T22:35:30.701Z,5.10
2019-04-25T22:37:32.737Z,3.30
2019-04-25T22:39:35.916Z,3.07
2019-04-25T22:41:41.464Z,3.17
2019-04-25T22:43:48.196Z,4.40
2019-04-25T22:45:50.911Z,4.70
2019-04-25T22:47:52.675Z,2.63
2019-04-25T22:49:54.818Z,4.07
2019-04-25T22:51:56.746Z,3.20
2019-04-25T22:53:58.897Z,3.07
2019-04-25T22:56:01.800Z,3.90
2019-04-25T22:58:03.867Z,6.30
2019-04-25T23:00:09.337Z,4.53
2019-04-25T23:02:23.532Z,5.97
2019-04-25T23:04:47.873Z,9.03
2019-04-25T23:06:49.571Z,5.83
2019-04-25T23:08:51.261Z,6.53
2019-04-25T23:10:52.961Z,6.20
2019-04-25T23:12:54.681Z,4.03
2019-04-25T23:14:56.369Z,4.27
2019-04-25T23:16:58.167Z,8.07
2019-04-25T23:19:02.942Z,9.00
2019-04-25T23:21:06.747Z,4.00
2019-04-25T23:23:09.676Z,8.27
2019-04-25T23:25:14.205Z,3.43
2019-04-25T23:27:34.360Z,5.07
2019-04-25T23:29:36.892Z,4.23
2019-04-25T23:31:39.338Z,3.53
2019-04-25T23:33:42.312Z,5.70
2019-04-25T23:35:46.317Z,4.13
2019-04-25T23:37:48.630Z,3.40
2019-04-25T23:39:50.680Z,3.40
2019-04-25T23:41:52.361Z,3.53
2019-04-25T23:43:54.080Z,3.33
2019-04-25T23:45:56.077Z,4.93
2019-04-25T23:47:59.965Z,3.10
2019-04-25T23:50:02.693Z,5.10
2019-04-25T23:52:04.715Z,3.70
2019-04-25T23:54:07.453Z,3.13
2019-04-25T23:56:10.953Z,4.17
2019-04-25T23:58:13.475Z,5.30
